• Join FlightAware (Why Join?)
  • Login
  • US Flag 
12:44PM EDT


 

Airport Tracker/Info


-or-


 

Live Flight TrackerFlight Track Log ✈ CTL15 ✈ 29-Apr-2013 ✈ KMGY - KBKL

Flight Track Log - Related Links

Times and Time Zones

All times are in EDT time to prevent confusion due to time zone crossing. See the CTL15 flight status page for this flight to view local times or setup timezone preferences in your user account.

Time Position Orientation Groundspeed Altitude Reporting Facility
EDT Latitude Longitude Course Direction KTS MPH feet Rate Location/Type
07:39PM 39.5931 -84.2364 46° Northeast 116 133 2,700  Level Indianapolis Center
07:39PM 39.6025 -84.2239 46° Northeast 118 136 3,200 840 Climbing Indianapolis Center
07:41PM 39.6311 -84.1800 50° Northeast 124 143 4,200 840 Climbing Indianapolis Center
07:41PM 39.6525 -84.1492 48° Northeast 134 154 5,000 360 Climbing Indianapolis Center
07:43PM 39.6831 -84.1014 50° Northeast 140 161 5,000 60 Level Indianapolis Center
07:43PM 39.7025 -84.0717 50° Northeast 168 193 5,200 60 Climbing Indianapolis Center
07:44PM 39.7144 -84.0536 49° Northeast 158 182 5,100  Descending Indianapolis Center
07:45PM 39.7406 -84.0142 49° Northeast 174 200 5,200  Climbing Indianapolis Center
07:45PM 39.7469 -84.0061 44° Northeast 169 194 5,100 -120 Descending Indianapolis Center
07:46PM 39.7783 -83.9594 49° Northeast 178 205 5,100 -60 Level Indianapolis Center
07:47PM 39.8103 -83.9081 51° Northeast 174 200 5,000 360 Descending Indianapolis Center
07:48PM 39.8314 -83.8683 55° Northeast 150 173 5,800 840 Climbing Indianapolis Center
07:48PM 39.8372 -83.8600 48° Northeast 169 194 5,900 1,080 Climbing Indianapolis Center
07:49PM 39.8594 -83.8286 47° Northeast 139 160 6,900 1,140 Climbing Indianapolis Center
07:49PM 39.8681 -83.8192 40° Northeast 146 168 7,100 360 Climbing Indianapolis Center
07:49PM 39.8800 -83.8039 44° Northeast 136 157 7,200  Climbing Indianapolis Center
07:50PM 39.8994 -83.7822 41° Northeast 144 166 7,100  Descending Indianapolis Center
07:50PM 39.9167 -83.7625 41° Northeast 174 200 7,200  Climbing Indianapolis Center
07:51PM 39.9353 -83.7394 44° Northeast 161 185 7,100  Descending Indianapolis Center
07:51PM 39.9467 -83.7253 44° Northeast 171 197 7,200  Climbing Indianapolis Center
07:52PM 39.9714 -83.6958 42° Northeast 170 196 7,100  Descending Indianapolis Center
07:53PM 39.9903 -83.6736 42° Northeast 174 200 7,200  Climbing Indianapolis Center
07:53PM 40.0083 -83.6531 41° Northeast 173 199 7,100  Descending Indianapolis Center
07:54PM 40.0272 -83.6292 44° Northeast 176 203 7,200  Climbing Indianapolis Center
07:54PM 40.0450 -83.6094 40° Northeast 175 201 7,100  Descending Indianapolis Center
07:54PM 40.0614 -83.5925 38° Northeast 175 201 7,200  Climbing Indianapolis Center
07:55PM 40.0831 -83.5686 40° Northeast 175 201 7,100 -240 Descending Indianapolis Center
07:55PM 40.0978 -83.5508 43° Northeast 177 204 7,000  Descending Indianapolis Center
07:56PM 40.1189 -83.5242 44° Northeast 175 201 7,100 60 Climbing Indianapolis Center
07:57PM 40.1369 -83.5011 44° Northeast 174 200 7,100  Level Indianapolis Center
07:57PM 40.1553 -83.4792 42° Northeast 176 203 7,100 60 Level Indianapolis Center
07:58PM 40.1717 -83.4589 43° Northeast 173 199 7,200  Climbing Indianapolis Center
07:58PM 40.1894 -83.4350 46° Northeast 172 198 7,100 -120 Descending Indianapolis Center
07:59PM 40.2108 -83.4092 43° Northeast 179 206 7,100  Level Indianapolis Center
07:59PM 40.2264 -83.3897 44° Northeast 178 205 7,100 60 Level Indianapolis Center
08:00PM 40.2619 -83.3439 45° Northeast 178 205 7,200 -60 Climbing Indianapolis Center
08:01PM 40.2967 -83.2992 44° Northeast 174 200 7,000 -120 Descending Indianapolis Center
08:02PM 40.3386 -83.2428 46° Northeast 182 209 7,000  Level Indianapolis Center
08:03PM 40.3731 -83.1947 47° Northeast 180 207 7,100  Climbing Indianapolis Center
08:04PM 40.4094 -83.1494 43° Northeast 179 206 7,100 -60 Level Indianapolis Center
08:05PM 40.4464 -83.1044 43° Northeast 180 207 7,000 -60 Descending Indianapolis Center
08:06PM 40.4814 -83.0569 46° Northeast 180 207 7,000  Level Indianapolis Center
08:07PM 40.5164 -83.0122 44° Northeast 179 206 7,100  Climbing Indianapolis Center
08:08PM 40.5528 -82.9658 44° Northeast 180 207 7,000 -60 Descending Indianapolis Center
08:09PM 40.5886 -82.9189 45° Northeast 180 207 7,000  Level Indianapolis Center
08:10PM 40.6233 -82.8717 46° Northeast 178 205 7,000  Level Indianapolis Center
08:12PM 40.6672 -82.8203 42° Northeast 179 206 7,100 -240 Climbing Indianapolis Center
08:13PM 40.7028 -82.7739 45° Northeast 178 205 6,600 -600 Descending Indianapolis Center
08:14PM 40.7453 -82.7250 41° Northeast 197 227 5,900 -540 Descending Indianapolis Center
08:15PM 40.7836 -82.6736 45° Northeast 195 224 5,500 -420 Descending Indianapolis Center